No particular awareness of the weather is required.    There are no Weather-warnings


Meteo18 Weather Cam more information Meteo18 Weather Cam


Thunder radar more information blitzortung!


Rain radar more information rain snow radar


Visit our other weather sites:

Template documentation
and downloads

And another site



Weather Underground History page Text

Daily Summary for April 3, 2017 Units:  Both    English   Metric
« Previous Day
Next Day »
Daily Weekly Monthly Yearly Custom
  High: Low: Average:
Temperature: 65.5 °F /  18.6 °C 46 °F /  7.8 °C 55.6 °F /  13.1 °C
Dew Point: 48.4 °F /  9.1 °C 41.2 °F /  5.1 °C 43.9 °F /  6.6 °C
Humidity: 85 % 42 % 66 %
Wind Speed: 11 mph /  17.7 km/h - 3.1 mph /  5 km/h
Wind Gust: 17 mph /  27.4 km/h - -
Wind:- - SW
Pressure: 30.3 in /  1026.3 hPa 30.3 in /  1024.6 hPa -
Precipitation: 0 in /  0.0 mm    
Historical Graphs
 
 
Tabular Data for April 3, 2017
Time Temperature Dew Point Pressure Wind Wind Speed Wind Gust Humidity Rainfall Rate (Hourly)
00:02 51.4 °F /  10.8 °C 44.8 °F /  7.1 °C 30.3 in /  1024.9 hPa NW 2 mph /  3.2 km/h 3 mph /  4.8 km/h 78 % 0 in /  0.0 mm
00:07 51.3 °F /  10.7 °C 44.6 °F /  7.0 °C 30.3 in /  1024.9 hPa NW 1 mph /  1.6 km/h 4 mph /  6.4 km/h 78 % 0 in /  0.0 mm
00:12 51.4 °F /  10.8 °C 44.8 °F /  7.1 °C 30.3 in /  1024.9 hPa NW 1 mph /  1.6 km/h 4 mph /  6.4 km/h 78 % 0 in /  0.0 mm
00:17 51.4 °F /  10.8 °C 44.8 °F /  7.1 °C 30.3 in /  1024.9 hPa NW 2 mph /  3.2 km/h 4 mph /  6.4 km/h 78 % 0 in /  0.0 mm
00:22 51.4 °F /  10.8 °C 44.8 °F /  7.1 °C 30.3 in /  1024.9 hPa NW 2 mph /  3.2 km/h 4 mph /  6.4 km/h 78 % 0 in /  0.0 mm
00:27 51.4 °F /  10.8 °C 44.8 °F /  7.1 °C 30.3 in /  1024.9 hPa NW 3 mph /  4.8 km/h 3 mph /  4.8 km/h 78 % 0 in /  0.0 mm
00:32 51.3 °F /  10.7 °C 44.6 °F /  7.0 °C 30.3 in /  1024.9 hPa Calm   3 mph /  4.8 km/h 78 % 0 in /  0.0 mm
00:37 51.3 °F /  10.7 °C 44.6 °F /  7.0 °C 30.3 in /  1024.9 hPa NW 2 mph /  3.2 km/h 3 mph /  4.8 km/h 78 % 0 in /  0.0 mm
00:42 51.3 °F /  10.7 °C 44.6 °F /  7.0 °C 30.3 in /  1024.9 hPa NNW 2 mph /  3.2 km/h 4 mph /  6.4 km/h 78 % 0 in /  0.0 mm
00:52 51.3 °F /  10.7 °C 44.6 °F /  7.0 °C 30.3 in /  1024.9 hPa NW 1 mph /  1.6 km/h 4 mph /  6.4 km/h 78 % 0 in /  0.0 mm
00:57 51.3 °F /  10.7 °C 44.6 °F /  7.0 °C 30.3 in /  1024.9 hPa NW 1 mph /  1.6 km/h 2 mph /  3.2 km/h 78 % 0 in /  0.0 mm
01:02 51.3 °F /  10.7 °C 44.2 °F /  6.8 °C 30.3 in /  1024.9 hPa Calm   2 mph /  3.2 km/h 77 % 0 in /  0.0 mm
01:07 51.3 °F /  10.7 °C 44.6 °F /  7.0 °C 30.3 in /  1024.9 hPa NW 1 mph /  1.6 km/h 2 mph /  3.2 km/h 78 % 0 in /  0.0 mm
01:12 51.1 °F /  10.6 °C 44.4 °F /  6.9 °C 30.3 in /  1024.9 hPa NW 2 mph /  3.2 km/h 4 mph /  6.4 km/h 78 % 0 in /  0.0 mm
01:17 51.1 °F /  10.6 °C 44.4 °F /  6.9 °C 30.3 in /  1024.9 hPa Calm   4 mph /  6.4 km/h 78 % 0 in /  0.0 mm
01:22 50.9 °F /  10.5 °C 44.2 °F /  6.8 °C 30.3 in /  1024.9 hPa NNW 1 mph /  1.6 km/h 4 mph /  6.4 km/h 78 % 0 in /  0.0 mm
01:27 50.9 °F /  10.5 °C 44.2 °F /  6.8 °C 30.3 in /  1025.3 hPa Calm   2 mph /  3.2 km/h 78 % 0 in /  0.0 mm
01:32 50.7 °F /  10.4 °C 44.1 °F /  6.7 °C 30.3 in /  1024.9 hPa Calm   2 mph /  3.2 km/h 78 % 0 in /  0.0 mm
01:37 50.5 °F /  10.3 °C 44.2 °F /  6.8 °C 30.3 in /  1024.9 hPa Calm   2 mph /  3.2 km/h 79 % 0 in /  0.0 mm
01:42 50.2 °F /  10.1 °C 43.9 °F /  6.6 °C 30.3 in /  1024.9 hPa Calm   1 mph /  1.6 km/h 79 % 0 in /  0.0 mm
01:47 50.2 °F /  10.1 °C 44.2 °F /  6.8 °C 30.3 in /  1024.9 hPa Calm   2 mph /  3.2 km/h 80 % 0 in /  0.0 mm
01:57 50.4 °F /  10.2 °C 44.1 °F /  6.7 °C 30.3 in /  1025.3 hPa NNW 1 mph /  1.6 km/h 3 mph /  4.8 km/h 79 % 0 in /  0.0 mm
02:02 50.4 °F /  10.2 °C 44.1 °F /  6.7 °C 30.3 in /  1025.3 hPa Calm   3 mph /  4.8 km/h 79 % 0 in /  0.0 mm
02:07 50.5 °F /  10.3 °C 44.2 °F /  6.8 °C 30.3 in /  1025.3 hPa NW 2 mph /  3.2 km/h 3 mph /  4.8 km/h 79 % 0 in /  0.0 mm
02:12 50.5 °F /  10.3 °C 43.9 °F /  6.6 °C 30.3 in /  1024.9 hPa Calm   3 mph /  4.8 km/h 78 % 0 in /  0.0 mm
02:17 50.5 °F /  10.3 °C 43.9 °F /  6.6 °C 30.3 in /  1024.9 hPa NW 1 mph /  1.6 km/h 3 mph /  4.8 km/h 78 % 0 in /  0.0 mm
02:22 50.5 °F /  10.3 °C 43.9 °F /  6.6 °C 30.3 in /  1024.9 hPa NNW 1 mph /  1.6 km/h 3 mph /  4.8 km/h 78 % 0 in /  0.0 mm
02:27 50.5 °F /  10.3 °C 43.9 °F /  6.6 °C 30.3 in /  1025.3 hPa NW 1 mph /  1.6 km/h 4 mph /  6.4 km/h 78 % 0 in /  0.0 mm
02:32 50.7 °F /  10.4 °C 44.1 °F /  6.7 °C 30.3 in /  1025.3 hPa NNW 1 mph /  1.6 km/h 4 mph /  6.4 km/h 78 % 0 in /  0.0 mm
02:37 50.7 °F /  10.4 °C 43.7 °F /  6.5 °C 30.3 in /  1024.9 hPa NNW 2 mph /  3.2 km/h 5 mph /  8.0 km/h 77 % 0 in /  0.0 mm
02:42 50.9 °F /  10.5 °C 43.9 °F /  6.6 °C 30.3 in /  1024.9 hPa NNW 2 mph /  3.2 km/h 5 mph /  8.0 km/h 77 % 0 in /  0.0 mm
02:47 51.1 °F /  10.6 °C 43.7 °F /  6.5 °C 30.3 in /  1024.9 hPa NW 2 mph /  3.2 km/h 4 mph /  6.4 km/h 76 % 0 in /  0.0 mm
02:52 50.7 °F /  10.4 °C 43.7 °F /  6.5 °C 30.3 in /  1024.9 hPa NNW 1 mph /  1.6 km/h 4 mph /  6.4 km/h 77 % 0 in /  0.0 mm
02:57 50.5 °F /  10.3 °C 43.5 °F /  6.4 °C 30.3 in /  1024.9 hPa NW 2 mph /  3.2 km/h 4 mph /  6.4 km/h 77 % 0 in /  0.0 mm
03:02 50.4 °F /  10.2 °C 43.3 °F /  6.3 °C 30.3 in /  1024.9 hPa NW 1 mph /  1.6 km/h 4 mph /  6.4 km/h 77 % 0 in /  0.0 mm
03:07 50.2 °F /  10.1 °C 43.5 °F /  6.4 °C 30.3 in /  1024.9 hPa NW 1 mph /  1.6 km/h 3 mph /  4.8 km/h 78 % 0 in /  0.0 mm
03:12 50 °F /  10.0 °C 43.3 °F /  6.3 °C 30.3 in /  1024.9 hPa NW 1 mph /  1.6 km/h 3 mph /  4.8 km/h 78 % 0 in /  0.0 mm
03:17 50.2 °F /  10.1 °C 43.5 °F /  6.4 °C 30.3 in /  1024.9 hPa NW 2 mph /  3.2 km/h 3 mph /  4.8 km/h 78 % 0 in /  0.0 mm
03:22 50.2 °F /  10.1 °C 43.5 °F /  6.4 °C 30.3 in /  1024.9 hPa NW 1 mph /  1.6 km/h 3 mph /  4.8 km/h 78 % 0 in /  0.0 mm
03:27 50 °F /  10.0 °C 43.3 °F /  6.3 °C 30.3 in /  1024.9 hPa NW 1 mph /  1.6 km/h 3 mph /  4.8 km/h 78 % 0 in /  0.0 mm
03:32 50 °F /  10.0 °C 43.2 °F /  6.2 °C 30.3 in /  1024.9 hPa NW 1 mph /  1.6 km/h 4 mph /  6.4 km/h 77 % 0 in /  0.0 mm
03:37 49.8 °F /  9.9 °C 43.2 °F /  6.2 °C 30.3 in /  1024.9 hPa NNW 2 mph /  3.2 km/h 4 mph /  6.4 km/h 78 % 0 in /  0.0 mm
03:42 49.8 °F /  9.9 °C 43.2 °F /  6.2 °C 30.3 in /  1024.9 hPa Calm   4 mph /  6.4 km/h 78 % 0 in /  0.0 mm
03:47 49.6 °F /  9.8 °C 43 °F /  6.1 °C 30.3 in /  1024.9 hPa NW 2 mph /  3.2 km/h 4 mph /  6.4 km/h 78 % 0 in /  0.0 mm
03:52 49.5 °F /  9.7 °C 43.2 °F /  6.2 °C 30.3 in /  1024.9 hPa NNW 3 mph /  4.8 km/h 4 mph /  6.4 km/h 79 % 0 in /  0.0 mm
03:57 49.5 °F /  9.7 °C 43.2 °F /  6.2 °C 30.3 in /  1024.9 hPa NNW 2 mph /  3.2 km/h 4 mph /  6.4 km/h 79 % 0 in /  0.0 mm
04:02 49.5 °F /  9.7 °C 43.2 °F /  6.2 °C 30.3 in /  1024.9 hPa NNW 2 mph /  3.2 km/h 5 mph /  8.0 km/h 79 % 0 in /  0.0 mm
04:07 49.5 °F /  9.7 °C 42.8 °F /  6.0 °C 30.3 in /  1024.9 hPa NNW 3 mph /  4.8 km/h 5 mph /  8.0 km/h 78 % 0 in /  0.0 mm
04:12 49.5 °F /  9.7 °C 42.8 °F /  6.0 °C 30.3 in /  1024.9 hPa NW 2 mph /  3.2 km/h 5 mph /  8.0 km/h 78 % 0 in /  0.0 mm
04:17 49.5 °F /  9.7 °C 42.8 °F /  6.0 °C 30.3 in /  1024.9 hPa NNW 3 mph /  4.8 km/h 6 mph /  9.7 km/h 78 % 0 in /  0.0 mm
04:22 49.5 °F /  9.7 °C 42.8 °F /  6.0 °C 30.3 in /  1024.9 hPa NW 2 mph /  3.2 km/h 6 mph /  9.7 km/h 78 % 0 in /  0.0 mm
04:27 49.6 °F /  9.8 °C 43 °F /  6.1 °C 30.3 in /  1024.9 hPa NNW 2 mph /  3.2 km/h 4 mph /  6.4 km/h 78 % 0 in /  0.0 mm
04:32 49.6 °F /  9.8 °C 42.8 °F /  6.0 °C 30.3 in /  1024.9 hPa North 3 mph /  4.8 km/h 5 mph /  8.0 km/h 77 % 0 in /  0.0 mm
04:42 49.6 °F /  9.8 °C 42.8 °F /  6.0 °C 30.3 in /  1024.9 hPa NNW 1 mph /  1.6 km/h 5 mph /  8.0 km/h 77 % 0 in /  0.0 mm
04:47 49.5 °F /  9.7 °C 42.6 °F /  5.9 °C 30.3 in /  1024.9 hPa North 3 mph /  4.8 km/h 5 mph /  8.0 km/h 77 % 0 in /  0.0 mm
04:52 49.6 °F /  9.8 °C 42.8 °F /  6.0 °C 30.3 in /  1024.9 hPa North 2 mph /  3.2 km/h 5 mph /  8.0 km/h 77 % 0 in /  0.0 mm
04:57 49.6 °F /  9.8 °C 42.8 °F /  6.0 °C 30.3 in /  1024.9 hPa NNE 3 mph /  4.8 km/h 6 mph /  9.7 km/h 77 % 0 in /  0.0 mm
05:02 49.6 °F /  9.8 °C 42.8 °F /  6.0 °C 30.3 in /  1024.9 hPa North 4 mph /  6.4 km/h 7 mph /  11.3 km/h 77 % 0 in /  0.0 mm
05:07 49.6 °F /  9.8 °C 42.8 °F /  6.0 °C 30.3 in /  1024.9 hPa NNW 2 mph /  3.2 km/h 9 mph /  14.5 km/h 77 % 0 in /  0.0 mm
05:12 49.8 °F /  9.9 °C 43 °F /  6.1 °C 30.3 in /  1024.9 hPa NNW 2 mph /  3.2 km/h 9 mph /  14.5 km/h 77 % 0 in /  0.0 mm
05:17 49.8 °F /  9.9 °C 43 °F /  6.1 °C 30.3 in /  1024.9 hPa NW 2 mph /  3.2 km/h 8 mph /  12.9 km/h 77 % 0 in /  0.0 mm
05:22 49.6 °F /  9.8 °C 42.8 °F /  6.0 °C 30.3 in /  1024.9 hPa NNW 1 mph /  1.6 km/h 8 mph /  12.9 km/h 77 % 0 in /  0.0 mm
05:27 49.6 °F /  9.8 °C 42.8 °F /  6.0 °C 30.3 in /  1024.9 hPa NW 2 mph /  3.2 km/h 5 mph /  8.0 km/h 77 % 0 in /  0.0 mm
05:32 49.6 °F /  9.8 °C 42.8 °F /  6.0 °C 30.3 in /  1024.9 hPa NNW 2 mph /  3.2 km/h 5 mph /  8.0 km/h 77 % 0 in /  0.0 mm
05:37 49.6 °F /  9.8 °C 42.8 °F /  6.0 °C 30.3 in /  1024.9 hPa NNW 3 mph /  4.8 km/h 5 mph /  8.0 km/h 77 % 0 in /  0.0 mm
05:42 49.5 °F /  9.7 °C 42.6 °F /  5.9 °C 30.3 in /  1024.9 hPa NNW 2 mph /  3.2 km/h 6 mph /  9.7 km/h 77 % 0 in /  0.0 mm
05:47 49.5 °F /  9.7 °C 42.6 °F /  5.9 °C 30.3 in /  1024.9 hPa NNW 3 mph /  4.8 km/h 6 mph /  9.7 km/h 77 % 0 in /  0.0 mm
05:52 49.3 °F /  9.6 °C 42.8 °F /  6.0 °C 30.3 in /  1024.9 hPa NNE 4 mph /  6.4 km/h 6 mph /  9.7 km/h 78 % 0 in /  0.0 mm
05:57 48.9 °F /  9.4 °C 42.4 °F /  5.8 °C 30.3 in /  1024.9 hPa NNW 1 mph /  1.6 km/h 6 mph /  9.7 km/h 78 % 0 in /  0.0 mm
06:02 48.9 °F /  9.4 °C 42.4 °F /  5.8 °C 30.3 in /  1024.9 hPa NNW 2 mph /  3.2 km/h 5 mph /  8.0 km/h 78 % 0 in /  0.0 mm
06:12 48.6 °F /  9.2 °C 42.3 °F /  5.7 °C 30.3 in /  1024.9 hPa NW 2 mph /  3.2 km/h 4 mph /  6.4 km/h 79 % 0 in /  0.0 mm
06:17 48.4 °F /  9.1 °C 42.4 °F /  5.8 °C 30.3 in /  1024.9 hPa NNW 1 mph /  1.6 km/h 4 mph /  6.4 km/h 80 % 0 in /  0.0 mm
06:22 48.4 °F /  9.1 °C 42.4 °F /  5.8 °C 30.3 in /  1024.9 hPa NNW 2 mph /  3.2 km/h 4 mph /  6.4 km/h 80 % 0 in /  0.0 mm
06:27 48.4 °F /  9.1 °C 42.4 °F /  5.8 °C 30.3 in /  1025.3 hPa NNW 2 mph /  3.2 km/h 4 mph /  6.4 km/h 80 % 0 in /  0.0 mm
06:32 48 °F /  8.9 °C 42.1 °F /  5.6 °C 30.3 in /  1024.9 hPa NNW 3 mph /  4.8 km/h 5 mph /  8.0 km/h 80 % 0 in /  0.0 mm
06:37 47.8 °F /  8.8 °C 42.3 °F /  5.7 °C 30.3 in /  1024.9 hPa NNW 1 mph /  1.6 km/h 6 mph /  9.7 km/h 81 % 0 in /  0.0 mm
06:42 47.7 °F /  8.7 °C 42.1 °F /  5.6 °C 30.3 in /  1024.9 hPa NNW 4 mph /  6.4 km/h 6 mph /  9.7 km/h 81 % 0 in /  0.0 mm
06:47 47.5 °F /  8.6 °C 41.9 °F /  5.5 °C 30.3 in /  1025.3 hPa NNW 2 mph /  3.2 km/h 6 mph /  9.7 km/h 81 % 0 in /  0.0 mm
06:52 47.5 °F /  8.6 °C 42.3 °F /  5.7 °C 30.3 in /  1025.3 hPa NNW 1 mph /  1.6 km/h 5 mph /  8.0 km/h 82 % 0 in /  0.0 mm
07:02 47.3 °F /  8.5 °C 42.1 °F /  5.6 °C 30.3 in /  1024.9 hPa NNW 2 mph /  3.2 km/h 6 mph /  9.7 km/h 82 % 0 in /  0.0 mm
07:07 47.5 °F /  8.6 °C 42.3 °F /  5.7 °C 30.3 in /  1025.3 hPa Calm   6 mph /  9.7 km/h 82 % 0 in /  0.0 mm
07:12 46.9 °F /  8.3 °C 41.7 °F /  5.4 °C 30.3 in /  1025.3 hPa NNW 1 mph /  1.6 km/h 6 mph /  9.7 km/h 82 % 0 in /  0.0 mm
07:17 46.8 °F /  8.2 °C 41.9 °F /  5.5 °C 30.3 in /  1025.3 hPa NNW 2 mph /  3.2 km/h 5 mph /  8.0 km/h 83 % 0 in /  0.0 mm
07:22 46.6 °F /  8.1 °C 41.7 °F /  5.4 °C 30.3 in /  1025.3 hPa North 1 mph /  1.6 km/h 4 mph /  6.4 km/h 83 % 0 in /  0.0 mm
07:27 46.2 °F /  7.9 °C 41.7 °F /  5.4 °C 30.3 in /  1025.3 hPa NW 1 mph /  1.6 km/h 4 mph /  6.4 km/h 84 % 0 in /  0.0 mm
07:32 46 °F /  7.8 °C 41.7 °F /  5.4 °C 30.3 in /  1025.3 hPa NW 2 mph /  3.2 km/h 4 mph /  6.4 km/h 85 % 0 in /  0.0 mm
07:37 46 °F /  7.8 °C 41.7 °F /  5.4 °C 30.3 in /  1025.3 hPa NNW 1 mph /  1.6 km/h 4 mph /  6.4 km/h 85 % 0 in /  0.0 mm
07:42 46.2 °F /  7.9 °C 41.9 °F /  5.5 °C 30.3 in /  1025.3 hPa NW 3 mph /  4.8 km/h 4 mph /  6.4 km/h 85 % 0 in /  0.0 mm
07:47 46.4 °F /  8.0 °C 42.1 °F /  5.6 °C 30.3 in /  1025.6 hPa NNW 1 mph /  1.6 km/h 4 mph /  6.4 km/h 85 % 0 in /  0.0 mm
07:52 46.6 °F /  8.1 °C 42.1 °F /  5.6 °C 30.3 in /  1025.6 hPa Calm   4 mph /  6.4 km/h 84 % 0 in /  0.0 mm
07:57 46.8 °F /  8.2 °C 42.3 °F /  5.7 °C 30.3 in /  1025.6 hPa NNW 3 mph /  4.8 km/h 5 mph /  8.0 km/h 84 % 0 in /  0.0 mm
08:07 47.1 °F /  8.4 °C 42.3 °F /  5.7 °C 30.3 in /  1025.6 hPa NNW 1 mph /  1.6 km/h 5 mph /  8.0 km/h 83 % 0 in /  0.0 mm
08:12 47.3 °F /  8.5 °C 42.4 °F /  5.8 °C 30.3 in /  1025.6 hPa Calm   4 mph /  6.4 km/h 83 % 0 in /  0.0 mm
08:17 47.5 °F /  8.6 °C 42.6 °F /  5.9 °C 30.3 in /  1025.6 hPa Calm   4 mph /  6.4 km/h 83 % 0 in /  0.0 mm
08:22 47.7 °F /  8.7 °C 42.8 °F /  6.0 °C 30.3 in /  1025.6 hPa NNW 2 mph /  3.2 km/h 4 mph /  6.4 km/h 83 % 0 in /  0.0 mm
08:27 47.8 °F /  8.8 °C 43 °F /  6.1 °C 30.3 in /  1025.6 hPa Calm   4 mph /  6.4 km/h 83 % 0 in /  0.0 mm
08:37 48.7 °F /  9.3 °C 43.5 °F /  6.4 °C 30.3 in /  1026.0 hPa NNW 1 mph /  1.6 km/h 4 mph /  6.4 km/h 82 % 0 in /  0.0 mm
08:42 49.1 °F /  9.5 °C 43.9 °F /  6.6 °C 30.3 in /  1026.0 hPa NNW 1 mph /  1.6 km/h 4 mph /  6.4 km/h 82 % 0 in /  0.0 mm
08:47 49.5 °F /  9.7 °C 43.9 °F /  6.6 °C 30.3 in /  1026.0 hPa NE 3 mph /  4.8 km/h 5 mph /  8.0 km/h 81 % 0 in /  0.0 mm
08:52 49.8 °F /  9.9 °C 43.9 °F /  6.6 °C 30.3 in /  1026.0 hPa North 2 mph /  3.2 km/h 6 mph /  9.7 km/h 80 % 0 in /  0.0 mm
08:57 50.2 °F /  10.1 °C 44.2 °F /  6.8 °C 30.3 in /  1026.0 hPa NNE 3 mph /  4.8 km/h 6 mph /  9.7 km/h 80 % 0 in /  0.0 mm
09:02 50.5 °F /  10.3 °C 44.6 °F /  7.0 °C 30.3 in /  1026.0 hPa NNE 3 mph /  4.8 km/h 6 mph /  9.7 km/h 80 % 0 in /  0.0 mm
09:12 50.7 °F /  10.4 °C 45.1 °F /  7.3 °C 30.3 in /  1026.0 hPa NE 2 mph /  3.2 km/h 7 mph /  11.3 km/h 81 % 0 in /  0.0 mm
09:17 51.1 °F /  10.6 °C 45.5 °F /  7.5 °C 30.3 in /  1026.0 hPa NNE 3 mph /  4.8 km/h 7 mph /  11.3 km/h 81 % 0 in /  0.0 mm
09:22 51.4 °F /  10.8 °C 45.5 °F /  7.5 °C 30.3 in /  1026.0 hPa NNW 5 mph /  8.0 km/h 7 mph /  11.3 km/h 80 % 0 in /  0.0 mm
09:27 51.8 °F /  11.0 °C 45.5 °F /  7.5 °C 30.3 in /  1026.0 hPa NNE 5 mph /  8.0 km/h 7 mph /  11.3 km/h 79 % 0 in /  0.0 mm
09:32 52 °F /  11.1 °C 45.7 °F /  7.6 °C 30.3 in /  1026.0 hPa NNW 5 mph /  8.0 km/h 8 mph /  12.9 km/h 79 % 0 in /  0.0 mm
09:37 52.3 °F /  11.3 °C 45.7 °F /  7.6 °C 30.3 in /  1026.0 hPa NNW 2 mph /  3.2 km/h 8 mph /  12.9 km/h 78 % 0 in /  0.0 mm
09:42 52.7 °F /  11.5 °C 45.7 °F /  7.6 °C 30.3 in /  1026.0 hPa NNE 6 mph /  9.7 km/h 10 mph /  16.1 km/h 77 % 0 in /  0.0 mm
09:47 53.1 °F /  11.7 °C 46 °F /  7.8 °C 30.3 in /  1026.0 hPa North 4 mph /  6.4 km/h 10 mph /  16.1 km/h 77 % 0 in /  0.0 mm
09:52 53.2 °F /  11.8 °C 46.2 °F /  7.9 °C 30.3 in /  1026.0 hPa North 5 mph /  8.0 km/h 10 mph /  16.1 km/h 77 % 0 in /  0.0 mm
09:57 53.4 °F /  11.9 °C 46 °F /  7.8 °C 30.3 in /  1026.0 hPa NNE 4 mph /  6.4 km/h 10 mph /  16.1 km/h 76 % 0 in /  0.0 mm
10:02 53.8 °F /  12.1 °C 46.4 °F /  8.0 °C 30.3 in /  1026.0 hPa NE 4 mph /  6.4 km/h 10 mph /  16.1 km/h 76 % 0 in /  0.0 mm
10:07 54 °F /  12.2 °C 46.2 °F /  7.9 °C 30.3 in /  1026.0 hPa ENE 3 mph /  4.8 km/h 10 mph /  16.1 km/h 75 % 0 in /  0.0 mm
10:12 54.1 °F /  12.3 °C 46 °F /  7.8 °C 30.3 in /  1026.0 hPa NNE 7 mph /  11.3 km/h 11 mph /  17.7 km/h 74 % 0 in /  0.0 mm
10:17 54.7 °F /  12.6 °C 46.9 °F /  8.3 °C 30.3 in /  1026.0 hPa NNE 4 mph /  6.4 km/h 11 mph /  17.7 km/h 75 % 0 in /  0.0 mm
10:22 54.9 °F /  12.7 °C 46.8 °F /  8.2 °C 30.3 in /  1026.0 hPa NW 3 mph /  4.8 km/h 10 mph /  16.1 km/h 74 % 0 in /  0.0 mm
10:27 54.9 °F /  12.7 °C 46 °F /  7.8 °C 30.3 in /  1026.0 hPa NNW 6 mph /  9.7 km/h 11 mph /  17.7 km/h 72 % 0 in /  0.0 mm
10:32 55 °F /  12.8 °C 45.9 °F /  7.7 °C 30.3 in /  1026.0 hPa North 9 mph /  14.5 km/h 11 mph /  17.7 km/h 71 % 0 in /  0.0 mm
10:37 55.4 °F /  13.0 °C 46.6 °F /  8.1 °C 30.3 in /  1026.0 hPa NNE 5 mph /  8.0 km/h 10 mph /  16.1 km/h 72 % 0 in /  0.0 mm
10:42 55.6 °F /  13.1 °C 46 °F /  7.8 °C 30.3 in /  1026.0 hPa NE 6 mph /  9.7 km/h 10 mph /  16.1 km/h 70 % 0 in /  0.0 mm
10:47 55.8 °F /  13.2 °C 46 °F /  7.8 °C 30.3 in /  1026.3 hPa NNE 6 mph /  9.7 km/h 11 mph /  17.7 km/h 70 % 0 in /  0.0 mm
10:52 55.9 °F /  13.3 °C 46.8 °F /  8.2 °C 30.3 in /  1026.0 hPa NNE 6 mph /  9.7 km/h 11 mph /  17.7 km/h 71 % 0 in /  0.0 mm
10:57 56.3 °F /  13.5 °C 46.9 °F /  8.3 °C 30.3 in /  1026.3 hPa NNE 8 mph /  12.9 km/h 11 mph /  17.7 km/h 71 % 0 in /  0.0 mm
11:02 56.7 °F /  13.7 °C 46.9 °F /  8.3 °C 30.3 in /  1026.0 hPa North 2 mph /  3.2 km/h 9 mph /  14.5 km/h 70 % 0 in /  0.0 mm
11:07 56.8 °F /  13.8 °C 46.8 °F /  8.2 °C 30.3 in /  1026.0 hPa NE 4 mph /  6.4 km/h 9 mph /  14.5 km/h 69 % 0 in /  0.0 mm
11:12 57.2 °F /  14.0 °C 47.5 °F /  8.6 °C 30.3 in /  1026.0 hPa NNE 2 mph /  3.2 km/h 9 mph /  14.5 km/h 70 % 0 in /  0.0 mm
11:17 57.7 °F /  14.3 °C 47.3 °F /  8.5 °C 30.3 in /  1026.0 hPa NNE 3 mph /  4.8 km/h 8 mph /  12.9 km/h 68 % 0 in /  0.0 mm
11:22 57.9 °F /  14.4 °C 46.2 °F /  7.9 °C 30.3 in /  1026.0 hPa NE 5 mph /  8.0 km/h 7 mph /  11.3 km/h 65 % 0 in /  0.0 mm
11:27 58.3 °F /  14.6 °C 46.9 °F /  8.3 °C 30.3 in /  1026.0 hPa NE 3 mph /  4.8 km/h 6 mph /  9.7 km/h 66 % 0 in /  0.0 mm
11:32 58.6 °F /  14.8 °C 46.9 °F /  8.3 °C 30.3 in /  1026.0 hPa East 1 mph /  1.6 km/h 6 mph /  9.7 km/h 65 % 0 in /  0.0 mm
11:37 59.2 °F /  15.1 °C 46.9 °F /  8.3 °C 30.3 in /  1026.0 hPa NNW 3 mph /  4.8 km/h 6 mph /  9.7 km/h 64 % 0 in /  0.0 mm
11:42 59.5 °F /  15.3 °C 47.3 °F /  8.5 °C 30.3 in /  1026.0 hPa NNE 4 mph /  6.4 km/h 6 mph /  9.7 km/h 64 % 0 in /  0.0 mm
11:47 59.9 °F /  15.5 °C 48 °F /  8.9 °C 30.3 in /  1026.0 hPa NE 3 mph /  4.8 km/h 6 mph /  9.7 km/h 65 % 0 in /  0.0 mm
11:52 60.1 °F /  15.6 °C 46.6 °F /  8.1 °C 30.3 in /  1026.0 hPa NE 4 mph /  6.4 km/h 6 mph /  9.7 km/h 61 % 0 in /  0.0 mm
11:57 60.1 °F /  15.6 °C 46.6 °F /  8.1 °C 30.3 in /  1026.0 hPa ENE 4 mph /  6.4 km/h 9 mph /  14.5 km/h 61 % 0 in /  0.0 mm
12:02 60.3 °F /  15.7 °C 46.8 °F /  8.2 °C 30.3 in /  1026.0 hPa NE 2 mph /  3.2 km/h 9 mph /  14.5 km/h 61 % 0 in /  0.0 mm
12:07 60.6 °F /  15.9 °C 47.1 °F /  8.4 °C 30.3 in /  1026.0 hPa NNE 4 mph /  6.4 km/h 8 mph /  12.9 km/h 61 % 0 in /  0.0 mm
12:12 60.8 °F /  16.0 °C 46.4 °F /  8.0 °C 30.3 in /  1026.0 hPa NE 3 mph /  4.8 km/h 9 mph /  14.5 km/h 59 % 0 in /  0.0 mm
12:17 61 °F /  16.1 °C 46.9 °F /  8.3 °C 30.3 in /  1026.0 hPa East 7 mph /  11.3 km/h 9 mph /  14.5 km/h 60 % 0 in /  0.0 mm
12:22 61 °F /  16.1 °C 46.6 °F /  8.1 °C 30.3 in /  1026.0 hPa ENE 5 mph /  8.0 km/h 9 mph /  14.5 km/h 59 % 0 in /  0.0 mm
12:27 61.2 °F /  16.2 °C 47.1 °F /  8.4 °C 30.3 in /  1026.0 hPa NNE 6 mph /  9.7 km/h 9 mph /  14.5 km/h 60 % 0 in /  0.0 mm
12:32 61.3 °F /  16.3 °C 47.3 °F /  8.5 °C 30.3 in /  1026.0 hPa North 5 mph /  8.0 km/h 10 mph /  16.1 km/h 60 % 0 in /  0.0 mm
12:42 61.3 °F /  16.3 °C 46 °F /  7.8 °C 30.3 in /  1026.0 hPa NNE 7 mph /  11.3 km/h 15 mph /  24.1 km/h 57 % 0 in /  0.0 mm
12:47 61.7 °F /  16.5 °C 46.8 °F /  8.2 °C 30.3 in /  1026.0 hPa ENE 5 mph /  8.0 km/h 15 mph /  24.1 km/h 58 % 0 in /  0.0 mm
12:52 61.9 °F /  16.6 °C 46.4 °F /  8.0 °C 30.3 in /  1026.0 hPa NE 4 mph /  6.4 km/h 15 mph /  24.1 km/h 57 % 0 in /  0.0 mm
12:57 61.9 °F /  16.6 °C 46.9 °F /  8.3 °C 30.3 in /  1026.0 hPa NE 5 mph /  8.0 km/h 14 mph /  22.5 km/h 58 % 0 in /  0.0 mm
13:02 62.2 °F /  16.8 °C 46.8 °F /  8.2 °C 30.3 in /  1026.0 hPa NNE 10 mph /  16.1 km/h 14 mph /  22.5 km/h 57 % 0 in /  0.0 mm
13:07 62.1 °F /  16.7 °C 46.2 °F /  7.9 °C 30.3 in /  1026.0 hPa NNE 7 mph /  11.3 km/h 14 mph /  22.5 km/h 56 % 0 in /  0.0 mm
13:12 62.4 °F /  16.9 °C 48.4 °F /  9.1 °C 30.3 in /  1026.0 hPa ENE 10 mph /  16.1 km/h 12 mph /  19.3 km/h 60 % 0 in /  0.0 mm
13:17 62.6 °F /  17.0 °C 46.2 °F /  7.9 °C 30.3 in /  1026.0 hPa ENE 2 mph /  3.2 km/h 13 mph /  20.9 km/h 55 % 0 in /  0.0 mm
13:22 62.8 °F /  17.1 °C 47.3 °F /  8.5 °C 30.3 in /  1026.0 hPa NE 4 mph /  6.4 km/h 13 mph /  20.9 km/h 57 % 0 in /  0.0 mm
13:27 63 °F /  17.2 °C 46.9 °F /  8.3 °C 30.3 in /  1025.6 hPa NNE 7 mph /  11.3 km/h 16 mph /  25.7 km/h 56 % 0 in /  0.0 mm
13:32 63 °F /  17.2 °C 46.9 °F /  8.3 °C 30.3 in /  1025.6 hPa NE 9 mph /  14.5 km/h 16 mph /  25.7 km/h 56 % 0 in /  0.0 mm
13:37 63 °F /  17.2 °C 46.6 °F /  8.1 °C 30.3 in /  1025.6 hPa NNE 8 mph /  12.9 km/h 16 mph /  25.7 km/h 55 % 0 in /  0.0 mm
13:42 63 °F /  17.2 °C 46.6 °F /  8.1 °C 30.3 in /  1025.6 hPa Calm   13 mph /  20.9 km/h 55 % 0 in /  0.0 mm
13:47 63.1 °F /  17.3 °C 47.1 °F /  8.4 °C 30.3 in /  1025.6 hPa NE 3 mph /  4.8 km/h 13 mph /  20.9 km/h 56 % 0 in /  0.0 mm
13:57 63.1 °F /  17.3 °C 46.8 °F /  8.2 °C 30.3 in /  1025.6 hPa NNW 8 mph /  12.9 km/h 16 mph /  25.7 km/h 55 % 0 in /  0.0 mm
14:02 63 °F /  17.2 °C 46.6 °F /  8.1 °C 30.3 in /  1025.6 hPa NNE 11 mph /  17.7 km/h 17 mph /  27.4 km/h 55 % 0 in /  0.0 mm
14:07 62.6 °F /  17.0 °C 47.7 °F /  8.7 °C 30.3 in /  1025.6 hPa NNE 6 mph /  9.7 km/h 17 mph /  27.4 km/h 58 % 0 in /  0.0 mm
14:12 62.8 °F /  17.1 °C 46.9 °F /  8.3 °C 30.3 in /  1025.6 hPa NNE 7 mph /  11.3 km/h 17 mph /  27.4 km/h 56 % 0 in /  0.0 mm
14:17 63 °F /  17.2 °C 45.1 °F /  7.3 °C 30.3 in /  1025.6 hPa East 5 mph /  8.0 km/h 14 mph /  22.5 km/h 52 % 0 in /  0.0 mm
14:22 63.3 °F /  17.4 °C 45.9 °F /  7.7 °C 30.3 in /  1025.3 hPa NNE 10 mph /  16.1 km/h 10 mph /  16.1 km/h 53 % 0 in /  0.0 mm
14:27 63.1 °F /  17.3 °C 45.1 °F /  7.3 °C 30.3 in /  1025.3 hPa NNE 6 mph /  9.7 km/h 12 mph /  19.3 km/h 52 % 0 in /  0.0 mm
14:32 62.8 °F /  17.1 °C 45 °F /  7.2 °C 30.3 in /  1025.3 hPa NW 4 mph /  6.4 km/h 12 mph /  19.3 km/h 52 % 0 in /  0.0 mm
14:42 62.8 °F /  17.1 °C 47.3 °F /  8.5 °C 30.3 in /  1025.3 hPa NE 5 mph /  8.0 km/h 17 mph /  27.4 km/h 57 % 0 in /  0.0 mm
14:47 63.7 °F /  17.6 °C 46.2 °F /  7.9 °C 30.3 in /  1025.3 hPa NNE 8 mph /  12.9 km/h 17 mph /  27.4 km/h 53 % 0 in /  0.0 mm
14:52 63.5 °F /  17.5 °C 46 °F /  7.8 °C 30.3 in /  1025.3 hPa NNE 2 mph /  3.2 km/h 17 mph /  27.4 km/h 53 % 0 in /  0.0 mm
14:57 64 °F /  17.8 °C 47.1 °F /  8.4 °C 30.3 in /  1024.9 hPa NE 9 mph /  14.5 km/h 13 mph /  20.9 km/h 54 % 0 in /  0.0 mm
15:02 64.6 °F /  18.1 °C 46 °F /  7.8 °C 30.3 in /  1024.9 hPa North 7 mph /  11.3 km/h 12 mph /  19.3 km/h 51 % 0 in /  0.0 mm
15:07 64.4 °F /  18.0 °C 45.3 °F /  7.4 °C 30.3 in /  1024.9 hPa NNE 9 mph /  14.5 km/h 14 mph /  22.5 km/h 50 % 0 in /  0.0 mm
15:12 63.9 °F /  17.7 °C 45.3 °F /  7.4 °C 30.3 in /  1024.9 hPa NNE 5 mph /  8.0 km/h 14 mph /  22.5 km/h 51 % 0 in /  0.0 mm
15:17 63.3 °F /  17.4 °C 45 °F /  7.2 °C 30.3 in /  1024.9 hPa NE 2 mph /  3.2 km/h 14 mph /  22.5 km/h 51 % 0 in /  0.0 mm
15:22 63.9 °F /  17.7 °C 44.8 °F /  7.1 °C 30.3 in /  1024.9 hPa North 9 mph /  14.5 km/h 12 mph /  19.3 km/h 50 % 0 in /  0.0 mm
15:32 64 °F /  17.8 °C 46 °F /  7.8 °C 30.3 in /  1025.3 hPa NE 5 mph /  8.0 km/h 16 mph /  25.7 km/h 52 % 0 in /  0.0 mm
15:37 63.7 °F /  17.6 °C 45.7 °F /  7.6 °C 30.3 in /  1025.3 hPa NE 6 mph /  9.7 km/h 16 mph /  25.7 km/h 52 % 0 in /  0.0 mm
15:42 64.4 °F /  18.0 °C 46.4 °F /  8.0 °C 30.3 in /  1024.9 hPa WNW 7 mph /  11.3 km/h 14 mph /  22.5 km/h 52 % 0 in /  0.0 mm
15:47 64.9 °F /  18.3 °C 45.9 °F /  7.7 °C 30.3 in /  1024.9 hPa NNW 6 mph /  9.7 km/h 11 mph /  17.7 km/h 50 % 0 in /  0.0 mm
15:52 64.8 °F /  18.2 °C 46.2 °F /  7.9 °C 30.3 in /  1025.3 hPa ENE 3 mph /  4.8 km/h 16 mph /  25.7 km/h 51 % 0 in /  0.0 mm
15:57 64 °F /  17.8 °C 44.4 °F /  6.9 °C 30.3 in /  1025.3 hPa NE 7 mph /  11.3 km/h 16 mph /  25.7 km/h 49 % 0 in /  0.0 mm
16:02 64 °F /  17.8 °C 44.4 °F /  6.9 °C 30.3 in /  1024.9 hPa NE 5 mph /  8.0 km/h 13 mph /  20.9 km/h 49 % 0 in /  0.0 mm
16:07 64 °F /  17.8 °C 45.5 °F /  7.5 °C 30.3 in /  1024.9 hPa NW 6 mph /  9.7 km/h 12 mph /  19.3 km/h 51 % 0 in /  0.0 mm
16:12 63.7 °F /  17.6 °C 44.8 °F /  7.1 °C 30.3 in /  1024.9 hPa North 4 mph /  6.4 km/h 12 mph /  19.3 km/h 50 % 0 in /  0.0 mm
16:17 63.9 °F /  17.7 °C 45.3 °F /  7.4 °C 30.3 in /  1024.9 hPa NNW 7 mph /  11.3 km/h 12 mph /  19.3 km/h 51 % 0 in /  0.0 mm
16:22 64.6 °F /  18.1 °C 45 °F /  7.2 °C 30.3 in /  1024.9 hPa NNW 10 mph /  16.1 km/h 10 mph /  16.1 km/h 49 % 0 in /  0.0 mm
16:27 64.8 °F /  18.2 °C 44.6 °F /  7.0 °C 30.3 in /  1024.9 hPa NNW 4 mph /  6.4 km/h 11 mph /  17.7 km/h 48 % 0 in /  0.0 mm
16:32 64.9 °F /  18.3 °C 43.7 °F /  6.5 °C 30.3 in /  1024.9 hPa NNW 4 mph /  6.4 km/h 11 mph /  17.7 km/h 46 % 0 in /  0.0 mm
16:37 65.1 °F /  18.4 °C 44.4 °F /  6.9 °C 30.3 in /  1024.9 hPa NNW 8 mph /  12.9 km/h 11 mph /  17.7 km/h 47 % 0 in /  0.0 mm
16:42 64.9 °F /  18.3 °C 44.2 °F /  6.8 °C 30.3 in /  1024.9 hPa NNW 3 mph /  4.8 km/h 12 mph /  19.3 km/h 47 % 0 in /  0.0 mm
16:47 65.1 °F /  18.4 °C 44.4 °F /  6.9 °C 30.3 in /  1024.9 hPa NW 1 mph /  1.6 km/h 12 mph /  19.3 km/h 47 % 0 in /  0.0 mm
16:52 65.5 °F /  18.6 °C 43.5 °F /  6.4 °C 30.3 in /  1024.9 hPa North 8 mph /  12.9 km/h 12 mph /  19.3 km/h 45 % 0 in /  0.0 mm
16:57 65.1 °F /  18.4 °C 43.3 °F /  6.3 °C 30.3 in /  1024.9 hPa North 7 mph /  11.3 km/h 12 mph /  19.3 km/h 45 % 0 in /  0.0 mm
17:02 65.3 °F /  18.5 °C 42.8 °F /  6.0 °C 30.3 in /  1024.9 hPa NNW 6 mph /  9.7 km/h 12 mph /  19.3 km/h 44 % 0 in /  0.0 mm
17:07 65.3 °F /  18.5 °C 43.3 °F /  6.3 °C 30.3 in /  1024.9 hPa NNW 3 mph /  4.8 km/h 13 mph /  20.9 km/h 45 % 0 in /  0.0 mm
17:12 65.1 °F /  18.4 °C 43.3 °F /  6.3 °C 30.3 in /  1024.9 hPa North 9 mph /  14.5 km/h 14 mph /  22.5 km/h 45 % 0 in /  0.0 mm
17:22 65.1 °F /  18.4 °C 42.6 °F /  5.9 °C 30.3 in /  1024.9 hPa NNE 6 mph /  9.7 km/h 14 mph /  22.5 km/h 44 % 0 in /  0.0 mm
17:27 64.9 °F /  18.3 °C 42.4 °F /  5.8 °C 30.3 in /  1024.9 hPa NNW 5 mph /  8.0 km/h 12 mph /  19.3 km/h 44 % 0 in /  0.0 mm
17:32 64.8 °F /  18.2 °C 41.7 °F /  5.4 °C 30.3 in /  1024.6 hPa North 4 mph /  6.4 km/h 11 mph /  17.7 km/h 43 % 0 in /  0.0 mm
17:37 64.8 °F /  18.2 °C 43 °F /  6.1 °C 30.3 in /  1024.6 hPa NNW 6 mph /  9.7 km/h 11 mph /  17.7 km/h 45 % 0 in /  0.0 mm
17:42 64.9 °F /  18.3 °C 42.4 °F /  5.8 °C 30.3 in /  1024.6 hPa North 2 mph /  3.2 km/h 11 mph /  17.7 km/h 44 % 0 in /  0.0 mm
17:47 64.9 °F /  18.3 °C 41.9 °F /  5.5 °C 30.3 in /  1024.6 hPa North 4 mph /  6.4 km/h 11 mph /  17.7 km/h 43 % 0 in /  0.0 mm
17:52 64.9 °F /  18.3 °C 42.4 °F /  5.8 °C 30.3 in /  1024.6 hPa NE 6 mph /  9.7 km/h 11 mph /  17.7 km/h 44 % 0 in /  0.0 mm
17:57 64.9 °F /  18.3 °C 41.9 °F /  5.5 °C 30.3 in /  1024.6 hPa North 9 mph /  14.5 km/h 10 mph /  16.1 km/h 43 % 0 in /  0.0 mm
18:02 64.8 °F /  18.2 °C 42.3 °F /  5.7 °C 30.3 in /  1024.6 hPa NNW 4 mph /  6.4 km/h 11 mph /  17.7 km/h 44 % 0 in /  0.0 mm
18:12 64.8 °F /  18.2 °C 41.2 °F /  5.1 °C 30.3 in /  1024.6 hPa NW 4 mph /  6.4 km/h 12 mph /  19.3 km/h 42 % 0 in /  0.0 mm
18:17 64.6 °F /  18.1 °C 42.8 °F /  6.0 °C 30.3 in /  1024.6 hPa NNW 4 mph /  6.4 km/h 11 mph /  17.7 km/h 45 % 0 in /  0.0 mm
18:22 64.4 °F /  18.0 °C 42.1 °F /  5.6 °C 30.3 in /  1024.6 hPa NNE 6 mph /  9.7 km/h 11 mph /  17.7 km/h 44 % 0 in /  0.0 mm
18:32 64 °F /  17.8 °C 41.7 °F /  5.4 °C 30.3 in /  1024.6 hPa NNW 2 mph /  3.2 km/h 12 mph /  19.3 km/h 44 % 0 in /  0.0 mm
18:42 64 °F /  17.8 °C 41.7 °F /  5.4 °C 30.3 in /  1024.6 hPa NNE 4 mph /  6.4 km/h 10 mph /  16.1 km/h 44 % 0 in /  0.0 mm
18:47 64 °F /  17.8 °C 43.3 °F /  6.3 °C 30.3 in /  1024.6 hPa NE 4 mph /  6.4 km/h 9 mph /  14.5 km/h 47 % 0 in /  0.0 mm
18:52 63.9 °F /  17.7 °C 42.1 °F /  5.6 °C 30.3 in /  1024.6 hPa NNW 5 mph /  8.0 km/h 9 mph /  14.5 km/h 45 % 0 in /  0.0 mm
18:57 63.7 °F /  17.6 °C 42.4 °F /  5.8 °C 30.3 in /  1024.6 hPa North 7 mph /  11.3 km/h 9 mph /  14.5 km/h 46 % 0 in /  0.0 mm
19:02 63.7 °F /  17.6 °C 42.4 °F /  5.8 °C 30.3 in /  1024.6 hPa North 4 mph /  6.4 km/h 9 mph /  14.5 km/h 46 % 0 in /  0.0 mm
19:07 63.5 °F /  17.5 °C 43 °F /  6.1 °C 30.3 in /  1024.6 hPa NNE 2 mph /  3.2 km/h 9 mph /  14.5 km/h 47 % 0 in /  0.0 mm
19:12 63.3 °F /  17.4 °C 42.8 °F /  6.0 °C 30.3 in /  1024.6 hPa NNW 4 mph /  6.4 km/h 9 mph /  14.5 km/h 47 % 0 in /  0.0 mm
19:17 63.1 °F /  17.3 °C 43.2 °F /  6.2 °C 30.3 in /  1024.6 hPa NNW 3 mph /  4.8 km/h 8 mph /  12.9 km/h 48 % 0 in /  0.0 mm
19:22 63 °F /  17.2 °C 43.5 °F /  6.4 °C 30.3 in /  1024.6 hPa North 4 mph /  6.4 km/h 8 mph /  12.9 km/h 49 % 0 in /  0.0 mm
19:32 62.4 °F /  16.9 °C 42.4 °F /  5.8 °C 30.3 in /  1024.6 hPa NNE 2 mph /  3.2 km/h 10 mph /  16.1 km/h 48 % 0 in /  0.0 mm
19:37 62.4 °F /  16.9 °C 42.4 °F /  5.8 °C 30.3 in /  1024.6 hPa NNW 2 mph /  3.2 km/h 10 mph /  16.1 km/h 48 % 0 in /  0.0 mm
19:42 62.1 °F /  16.7 °C 42.1 °F /  5.6 °C 30.3 in /  1024.9 hPa NNE 2 mph /  3.2 km/h 10 mph /  16.1 km/h 48 % 0 in /  0.0 mm
19:47 61.7 °F /  16.5 °C 41.9 °F /  5.5 °C 30.3 in /  1024.9 hPa NE 3 mph /  4.8 km/h 7 mph /  11.3 km/h 48 % 0 in /  0.0 mm
19:52 61.3 °F /  16.3 °C 42.1 °F /  5.6 °C 30.3 in /  1024.6 hPa NNW 3 mph /  4.8 km/h 7 mph /  11.3 km/h 49 % 0 in /  0.0 mm
19:57 61 °F /  16.1 °C 42.3 °F /  5.7 °C 30.3 in /  1024.9 hPa NNE 2 mph /  3.2 km/h 7 mph /  11.3 km/h 50 % 0 in /  0.0 mm
20:02 60.3 °F /  15.7 °C 42.1 °F /  5.6 °C 30.3 in /  1024.9 hPa NE 1 mph /  1.6 km/h 6 mph /  9.7 km/h 51 % 0 in /  0.0 mm
20:07 59.7 °F /  15.4 °C 42.1 °F /  5.6 °C 30.3 in /  1024.6 hPa NNE 4 mph /  6.4 km/h 6 mph /  9.7 km/h 52 % 0 in /  0.0 mm
20:12 59.4 °F /  15.2 °C 42.3 °F /  5.7 °C 30.3 in /  1024.9 hPa NNW 1 mph /  1.6 km/h 6 mph /  9.7 km/h 53 % 0 in /  0.0 mm
20:17 59.2 °F /  15.1 °C 42.1 °F /  5.6 °C 30.3 in /  1024.9 hPa Calm   5 mph /  8.0 km/h 53 % 0 in /  0.0 mm
20:22 58.8 °F /  14.9 °C 42.3 °F /  5.7 °C 30.3 in /  1024.9 hPa NNW 2 mph /  3.2 km/h 5 mph /  8.0 km/h 54 % 0 in /  0.0 mm
20:27 58.6 °F /  14.8 °C 42.4 °F /  5.8 °C 30.3 in /  1024.9 hPa North 2 mph /  3.2 km/h 4 mph /  6.4 km/h 55 % 0 in /  0.0 mm
20:32 58.3 °F /  14.6 °C 42.6 °F /  5.9 °C 30.3 in /  1024.9 hPa North 3 mph /  4.8 km/h 4 mph /  6.4 km/h 56 % 0 in /  0.0 mm
20:37 57.9 °F /  14.4 °C 42.3 °F /  5.7 °C 30.3 in /  1024.9 hPa NNW 1 mph /  1.6 km/h 4 mph /  6.4 km/h 56 % 0 in /  0.0 mm
20:42 57.6 °F /  14.2 °C 41.9 °F /  5.5 °C 30.3 in /  1024.9 hPa NNW 2 mph /  3.2 km/h 4 mph /  6.4 km/h 56 % 0 in /  0.0 mm
20:47 57.2 °F /  14.0 °C 42.1 °F /  5.6 °C 30.3 in /  1024.9 hPa North 4 mph /  6.4 km/h 4 mph /  6.4 km/h 57 % 0 in /  0.0 mm
20:52 57 °F /  13.9 °C 41.9 °F /  5.5 °C 30.3 in /  1024.9 hPa North 2 mph /  3.2 km/h 4 mph /  6.4 km/h 57 % 0 in /  0.0 mm
20:57 56.7 °F /  13.7 °C 42.1 °F /  5.6 °C 30.3 in /  1024.9 hPa NW 1 mph /  1.6 km/h 4 mph /  6.4 km/h 58 % 0 in /  0.0 mm
21:02 56.5 °F /  13.6 °C 42.3 °F /  5.7 °C 30.3 in /  1024.9 hPa North 1 mph /  1.6 km/h 4 mph /  6.4 km/h 59 % 0 in /  0.0 mm
21:07 56.1 °F /  13.4 °C 41.9 °F /  5.5 °C 30.3 in /  1024.9 hPa North 2 mph /  3.2 km/h 5 mph /  8.0 km/h 59 % 0 in /  0.0 mm
21:12 55.9 °F /  13.3 °C 41.9 °F /  5.5 °C 30.3 in /  1024.9 hPa North 1 mph /  1.6 km/h 5 mph /  8.0 km/h 59 % 0 in /  0.0 mm
21:17 55.8 °F /  13.2 °C 42.1 °F /  5.6 °C 30.3 in /  1024.9 hPa North 2 mph /  3.2 km/h 4 mph /  6.4 km/h 60 % 0 in /  0.0 mm
21:22 55.4 °F /  13.0 °C 42.3 °F /  5.7 °C 30.3 in /  1025.3 hPa North 1 mph /  1.6 km/h 3 mph /  4.8 km/h 61 % 0 in /  0.0 mm
21:32 54.9 °F /  12.7 °C 42.1 °F /  5.6 °C 30.3 in /  1025.3 hPa Calm   3 mph /  4.8 km/h 62 % 0 in /  0.0 mm
21:37 54.7 °F /  12.6 °C 41.9 °F /  5.5 °C 30.3 in /  1025.3 hPa NNW 1 mph /  1.6 km/h 2 mph /  3.2 km/h 62 % 0 in /  0.0 mm
21:42 54.5 °F /  12.5 °C 42.1 °F /  5.6 °C 30.3 in /  1025.3 hPa Calm   1 mph /  1.6 km/h 63 % 0 in /  0.0 mm
21:47 54.5 °F /  12.5 °C 42.1 °F /  5.6 °C 30.3 in /  1025.3 hPa NNW 1 mph /  1.6 km/h 1 mph /  1.6 km/h 63 % 0 in /  0.0 mm
21:52 54.3 °F /  12.4 °C 42.1 °F /  5.6 °C 30.3 in /  1025.3 hPa NW 1 mph /  1.6 km/h 2 mph /  3.2 km/h 63 % 0 in /  0.0 mm
21:57 54.1 °F /  12.3 °C 41.9 °F /  5.5 °C 30.3 in /  1025.3 hPa NW 1 mph /  1.6 km/h 2 mph /  3.2 km/h 63 % 0 in /  0.0 mm
22:02 54.1 °F /  12.3 °C 42.3 °F /  5.7 °C 30.3 in /  1025.3 hPa NW 1 mph /  1.6 km/h 2 mph /  3.2 km/h 64 % 0 in /  0.0 mm
22:12 52.9 °F /  11.6 °C 42.3 °F /  5.7 °C 30.3 in /  1025.6 hPa WNW 2 mph /  3.2 km/h 3 mph /  4.8 km/h 67 % 0 in /  0.0 mm
22:17 52.3 °F /  11.3 °C 42.1 °F /  5.6 °C 30.3 in /  1025.6 hPa WNW 2 mph /  3.2 km/h 3 mph /  4.8 km/h 68 % 0 in /  0.0 mm
22:22 52.3 °F /  11.3 °C 42.1 °F /  5.6 °C 30.3 in /  1025.6 hPa NW 2 mph /  3.2 km/h 2 mph /  3.2 km/h 68 % 0 in /  0.0 mm
22:27 53.2 °F /  11.8 °C 42.3 °F /  5.7 °C 30.3 in /  1025.3 hPa NW 1 mph /  1.6 km/h 2 mph /  3.2 km/h 66 % 0 in /  0.0 mm
22:32 53.4 °F /  11.9 °C 41.9 °F /  5.5 °C 30.3 in /  1025.6 hPa WNW 1 mph /  1.6 km/h 2 mph /  3.2 km/h 65 % 0 in /  0.0 mm
22:37 53.4 °F /  11.9 °C 41.9 °F /  5.5 °C 30.3 in /  1025.3 hPa NW 1 mph /  1.6 km/h 2 mph /  3.2 km/h 65 % 0 in /  0.0 mm
22:42 53.2 °F /  11.8 °C 42.3 °F /  5.7 °C 30.3 in /  1025.3 hPa WNW 2 mph /  3.2 km/h 2 mph /  3.2 km/h 66 % 0 in /  0.0 mm
22:47 51.6 °F /  10.9 °C 41.7 °F /  5.4 °C 30.3 in /  1025.3 hPa WNW 2 mph /  3.2 km/h 2 mph /  3.2 km/h 69 % 0 in /  0.0 mm
22:52 51.4 °F /  10.8 °C 41.9 °F /  5.5 °C 30.3 in /  1025.3 hPa WNW 1 mph /  1.6 km/h 2 mph /  3.2 km/h 70 % 0 in /  0.0 mm
22:57 50.5 °F /  10.3 °C 41.9 °F /  5.5 °C 30.3 in /  1025.3 hPa WNW 2 mph /  3.2 km/h 2 mph /  3.2 km/h 72 % 0 in /  0.0 mm
23:02 50.4 °F /  10.2 °C 42.1 °F /  5.6 °C 30.3 in /  1025.6 hPa WNW 2 mph /  3.2 km/h 2 mph /  3.2 km/h 73 % 0 in /  0.0 mm
23:07 50.4 °F /  10.2 °C 42.1 °F /  5.6 °C 30.3 in /  1025.6 hPa WNW 2 mph /  3.2 km/h 2 mph /  3.2 km/h 73 % 0 in /  0.0 mm
23:12 50.2 °F /  10.1 °C 41.9 °F /  5.5 °C 30.3 in /  1025.6 hPa WNW 2 mph /  3.2 km/h 2 mph /  3.2 km/h 73 % 0 in /  0.0 mm
23:17 50.2 °F /  10.1 °C 41.9 °F /  5.5 °C 30.3 in /  1025.6 hPa WNW 2 mph /  3.2 km/h 3 mph /  4.8 km/h 73 % 0 in /  0.0 mm
23:22 50.2 °F /  10.1 °C 41.9 °F /  5.5 °C 30.3 in /  1025.6 hPa WNW 2 mph /  3.2 km/h 3 mph /  4.8 km/h 73 % 0 in /  0.0 mm
23:27 50.7 °F /  10.4 °C 41.7 °F /  5.4 °C 30.3 in /  1025.6 hPa WNW 1 mph /  1.6 km/h 3 mph /  4.8 km/h 71 % 0 in /  0.0 mm
23:32 51.3 °F /  10.7 °C 41.9 °F /  5.5 °C 30.3 in /  1025.6 hPa NW 2 mph /  3.2 km/h 3 mph /  4.8 km/h 70 % 0 in /  0.0 mm
23:42 51.8 °F /  11.0 °C 41.5 °F /  5.3 °C 30.3 in /  1025.6 hPa NW 1 mph /  1.6 km/h 3 mph /  4.8 km/h 68 % 0 in /  0.0 mm
23:47 51.1 °F /  10.6 °C 41.7 °F /  5.4 °C 30.3 in /  1025.6 hPa WNW 2 mph /  3.2 km/h 2 mph /  3.2 km/h 70 % 0 in /  0.0 mm
23:52 50.7 °F /  10.4 °C 41.7 °F /  5.4 °C 30.3 in /  1025.3 hPa WNW 2 mph /  3.2 km/h 2 mph /  3.2 km/h 71 % 0 in /  0.0 mm
23:57 50.4 °F /  10.2 °C 41.7 °F /  5.4 °C 30.3 in /  1025.3 hPa WNW 2 mph /  3.2 km/h 2 mph /  3.2 km/h 72 % 0 in /  0.0 mm
Meteo18
Compliments of Weather Underground - 4 mb

Script developed by  Jim McMurry - jmcmurry@mwt.net Adapted for the template by  Wim van der Kuil - Leuven-Template.eu

You find our weather info also at:

European Weather Network

Weather Underground

Equipment we use:

Weather-station
Davis Vue

Weather-program
Meteohub

Weather-server
Raspberry PI 2 B+

Provider
1 and 1

Davis Vue

Meteohub

Raspberry PI 2 B+

1 and 1